sensor_id;sensor_type;location;lat;lon;timestamp;pressure;altitude;pressure_sealevel;temperature;humidity
38530;BME280;24301;54.332;48.386;2023-12-20T00:01:55;97462.69;;;0.61;90.60
38530;BME280;24301;54.332;48.386;2023-12-20T00:04:21;97458.41;;;0.64;90.34
38530;BME280;24301;54.332;48.386;2023-12-20T00:06:47;97470.47;;;0.65;90.20
38530;BME280;24301;54.332;48.386;2023-12-20T00:09:13;97456.66;;;0.60;89.75
38530;BME280;24301;54.332;48.386;2023-12-20T00:11:39;97490.28;;;0.62;90.01
38530;BME280;24301;54.332;48.386;2023-12-20T00:14:07;97469.63;;;0.65;90.69
38530;BME280;24301;54.332;48.386;2023-12-20T00:16:33;97474.78;;;0.71;90.11
38530;BME280;24301;54.332;48.386;2023-12-20T00:18:59;97472.19;;;0.74;90.03
38530;BME280;24301;54.332;48.386;2023-12-20T00:21:25;97473.94;;;0.75;89.44
38530;BME280;24301;54.332;48.386;2023-12-20T00:23:51;97485.13;;;0.80;89.94
38530;BME280;24301;54.332;48.386;2023-12-20T00:26:17;97457.53;;;0.79;89.64
38530;BME280;24301;54.332;48.386;2023-12-20T00:28:43;97426.50;;;0.82;88.79
38530;BME280;24301;54.332;48.386;2023-12-20T00:31:09;97480.00;;;0.90;89.08
38530;BME280;24301;54.332;48.386;2023-12-20T00:33:36;97485.16;;;0.96;88.69
38530;BME280;24301;54.332;48.386;2023-12-20T00:36:02;97481.72;;;0.97;88.88
38530;BME280;24301;54.332;48.386;2023-12-20T00:38:28;97498.09;;;1.02;88.91
38530;BME280;24301;54.332;48.386;2023-12-20T00:40:54;97480.84;;;1.04;88.92
38530;BME280;24301;54.332;48.386;2023-12-20T00:43:20;97469.63;;;1.10;88.34
38530;BME280;24301;54.332;48.386;2023-12-20T00:45:45;97492.03;;;1.12;88.50
38530;BME280;24301;54.332;48.386;2023-12-20T00:48:11;97464.47;;;1.14;87.94
38530;BME280;24301;54.332;48.386;2023-12-20T00:50:37;97469.63;;;1.18;87.93
38530;BME280;24301;54.332;48.386;2023-12-20T00:53:03;97462.72;;;1.20;87.55
38530;BME280;24301;54.332;48.386;2023-12-20T00:55:29;97478.22;;;1.21;87.70
38530;BME280;24301;54.332;48.386;2023-12-20T00:57:55;97473.06;;;1.20;87.82
38530;BME280;24301;54.332;48.386;2023-12-20T01:00:21;97461.00;;;1.22;87.38
38530;BME280;24301;54.332;48.386;2023-12-20T01:02:47;97461.84;;;1.21;87.94
38530;BME280;24301;54.332;48.386;2023-12-20T01:05:15;97482.53;;;1.22;87.64
38530;BME280;24301;54.332;48.386;2023-12-20T01:07:41;97471.34;;;1.25;87.57
38530;BME280;24301;54.332;48.386;2023-12-20T01:10:07;97476.53;;;1.26;87.42
38530;BME280;24301;54.332;48.386;2023-12-20T01:12:33;97477.38;;;1.28;87.57
38530;BME280;24301;54.332;48.386;2023-12-20T01:14:59;97469.59;;;1.30;87.66
38530;BME280;24301;54.332;48.386;2023-12-20T01:17:25;97475.66;;;1.29;88.23
38530;BME280;24301;54.332;48.386;2023-12-20T01:19:51;97489.44;;;1.31;87.51
38530;BME280;24301;54.332;48.386;2023-12-20T01:22:17;97484.28;;;1.26;88.05
38530;BME280;24301;54.332;48.386;2023-12-20T01:24:43;97451.50;;;1.24;88.42
38530;BME280;24301;54.332;48.386;2023-12-20T01:27:09;97450.63;;;1.23;88.32
38530;BME280;24301;54.332;48.386;2023-12-20T01:29:35;97436.84;;;1.17;89.00
38530;BME280;24301;54.332;48.386;2023-12-20T01:32:01;97462.72;;;1.23;89.20
38530;BME280;24301;54.332;48.386;2023-12-20T01:34:31;97466.16;;;1.25;89.18
38530;BME280;24301;54.332;48.386;2023-12-20T01:36:58;97460.13;;;1.21;89.80
38530;BME280;24301;54.332;48.386;2023-12-20T01:39:26;97467.00;;;1.22;89.14
38530;BME280;24301;54.332;48.386;2023-12-20T01:41:52;97453.19;;;1.23;90.08
38530;BME280;24301;54.332;48.386;2023-12-20T01:44:18;97464.44;;;1.27;89.96
38530;BME280;24301;54.332;48.386;2023-12-20T01:46:45;97440.28;;;1.25;90.07
38530;BME280;24301;54.332;48.386;2023-12-20T01:49:16;97456.66;;;1.28;90.07
38530;BME280;24301;54.332;48.386;2023-12-20T01:51:43;97457.53;;;1.29;89.94
38530;BME280;24301;54.332;48.386;2023-12-20T01:54:12;97458.38;;;1.31;89.86
38530;BME280;24301;54.332;48.386;2023-12-20T01:56:39;97450.59;;;1.31;90.49
38530;BME280;24301;54.332;48.386;2023-12-20T01:59:07;97440.25;;;1.31;90.55
38530;BME280;24301;54.332;48.386;2023-12-20T02:01:35;97434.25;;;1.27;90.63
38530;BME280;24301;54.332;48.386;2023-12-20T02:04:01;97435.06;;;1.31;90.35
38530;BME280;24301;54.332;48.386;2023-12-20T02:06:29;97436.78;;;1.32;90.68
38530;BME280;24301;54.332;48.386;2023-12-20T02:08:58;97411.78;;;1.33;90.68
38530;BME280;24301;54.332;48.386;2023-12-20T02:11:27;97431.63;;;1.26;90.31
38530;BME280;24301;54.332;48.386;2023-12-20T02:13:59;97439.41;;;1.24;91.06
38530;BME280;24301;54.332;48.386;2023-12-20T02:16:26;97419.56;;;1.22;91.41
38530;BME280;24301;54.332;48.386;2023-12-20T02:18:56;97425.59;;;1.25;90.85
38530;BME280;24301;54.332;48.386;2023-12-20T02:21:32;97427.34;;;1.26;91.13
38530;BME280;24301;54.332;48.386;2023-12-20T02:23:59;97409.19;;;1.25;91.20
38530;BME280;24301;54.332;48.386;2023-12-20T02:26:27;97441.13;;;1.27;91.60
38530;BME280;24301;54.332;48.386;2023-12-20T02:28:53;97433.38;;;1.28;91.52
38530;BME280;24301;54.332;48.386;2023-12-20T02:31:23;97448.88;;;1.33;92.13
38530;BME280;24301;54.332;48.386;2023-12-20T02:33:49;97438.50;;;1.36;91.02
38530;BME280;24301;54.332;48.386;2023-12-20T02:36:15;97428.16;;;1.33;91.52
38530;BME280;24301;54.332;48.386;2023-12-20T02:38:41;97413.53;;;1.27;90.68
38530;BME280;24301;54.332;48.386;2023-12-20T02:41:07;97427.31;;;1.25;91.05
38530;BME280;24301;54.332;48.386;2023-12-20T02:43:33;97404.88;;;1.19;91.39
38530;BME280;24301;54.332;48.386;2023-12-20T02:46:00;97429.91;;;1.22;91.94
38530;BME280;24301;54.332;48.386;2023-12-20T02:48:26;97433.38;;;1.24;92.13
38530;BME280;24301;54.332;48.386;2023-12-20T02:50:54;97435.94;;;1.25;92.39
38530;BME280;24301;54.332;48.386;2023-12-20T02:53:20;97430.78;;;1.27;92.02
38530;BME280;24301;54.332;48.386;2023-12-20T02:55:46;97442.84;;;1.25;92.49
38530;BME280;24301;54.332;48.386;2023-12-20T02:58:12;97442.88;;;1.26;92.10
38530;BME280;24301;54.332;48.386;2023-12-20T03:00:38;97452.38;;;1.27;92.97
38530;BME280;24301;54.332;48.386;2023-12-20T03:03:04;97452.34;;;1.21;92.61
38530;BME280;24301;54.332;48.386;2023-12-20T03:05:30;97455.81;;;1.25;93.32
38530;BME280;24301;54.332;48.386;2023-12-20T03:07:56;97446.31;;;1.22;93.49
38530;BME280;24301;54.332;48.386;2023-12-20T03:10:21;97477.38;;;1.24;93.32
38530;BME280;24301;54.332;48.386;2023-12-20T03:12:47;97483.41;;;1.29;93.39
38530;BME280;24301;54.332;48.386;2023-12-20T03:15:13;97479.13;;;1.29;93.51
38530;BME280;24301;54.332;48.386;2023-12-20T03:17:39;97488.59;;;1.29;93.33
38530;BME280;24301;54.332;48.386;2023-12-20T03:20:06;97493.78;;;1.29;93.32
38530;BME280;24301;54.332;48.386;2023-12-20T03:22:32;97498.09;;;1.27;93.51
38530;BME280;24301;54.332;48.386;2023-12-20T03:24:58;97489.44;;;1.23;93.12
38530;BME280;24301;54.332;48.386;2023-12-20T03:27:24;97480.81;;;1.29;93.36
38530;BME280;24301;54.332;48.386;2023-12-20T03:29:49;97479.97;;;1.30;93.31
38530;BME280;24301;54.332;48.386;2023-12-20T03:32:15;97486.84;;;1.34;93.45
38530;BME280;24301;54.332;48.386;2023-12-20T03:34:41;97481.66;;;1.34;93.70
38530;BME280;24301;54.332;48.386;2023-12-20T03:37:07;97486.88;;;1.43;93.89
38530;BME280;24301;54.332;48.386;2023-12-20T03:39:33;97485.13;;;1.42;93.44
38530;BME280;24301;54.332;48.386;2023-12-20T03:41:59;97482.53;;;1.46;93.64
38530;BME280;24301;54.332;48.386;2023-12-20T03:44:25;97482.50;;;1.50;93.83
38530;BME280;24301;54.332;48.386;2023-12-20T03:46:51;97468.69;;;1.51;93.07
38530;BME280;24301;54.332;48.386;2023-12-20T03:49:17;97464.38;;;1.52;93.08
38530;BME280;24301;54.332;48.386;2023-12-20T03:51:43;97478.19;;;1.58;93.31
38530;BME280;24301;54.332;48.386;2023-12-20T03:54:09;97473.00;;;1.58;92.67
38530;BME280;24301;54.332;48.386;2023-12-20T03:56:35;97485.09;;;1.60;92.72
38530;BME280;24301;54.332;48.386;2023-12-20T03:59:01;97488.53;;;1.60;92.82
38530;BME280;24301;54.332;48.386;2023-12-20T04:01:27;97493.72;;;1.63;92.94
38530;BME280;24301;54.332;48.386;2023-12-20T04:03:52;97507.53;;;1.62;92.39
38530;BME280;24301;54.332;48.386;2023-12-20T04:06:18;97520.50;;;1.61;92.14
38530;BME280;24301;54.332;48.386;2023-12-20T04:08:44;97517.03;;;1.66;92.17
38530;BME280;24301;54.332;48.386;2023-12-20T04:11:11;97522.22;;;1.68;92.41
38530;BME280;24301;54.332;48.386;2023-12-20T04:13:36;97524.81;;;1.69;92.33
38530;BME280;24301;54.332;48.386;2023-12-20T04:16:03;97530.00;;;1.69;92.33
38530;BME280;24301;54.332;48.386;2023-12-20T04:18:29;97524.81;;;1.72;92.50
38530;BME280;24301;54.332;48.386;2023-12-20T04:20:55;97535.16;;;1.76;92.75
38530;BME280;24301;54.332;48.386;2023-12-20T04:23:20;97543.78;;;1.81;92.10
38530;BME280;24301;54.332;48.386;2023-12-20T04:25:46;97546.38;;;1.81;92.00
38530;BME280;24301;54.332;48.386;2023-12-20T04:28:12;97537.75;;;1.80;91.67
38530;BME280;24301;54.332;48.386;2023-12-20T04:30:38;97543.81;;;1.71;91.26
38530;BME280;24301;54.332;48.386;2023-12-20T04:33:04;97543.81;;;1.71;91.46
38530;BME280;24301;54.332;48.386;2023-12-20T04:35:30;97536.88;;;1.75;91.87
38530;BME280;24301;54.332;48.386;2023-12-20T04:37:56;97544.66;;;1.69;91.61
38530;BME280;24301;54.332;48.386;2023-12-20T04:40:22;97533.44;;;1.68;91.25
38530;BME280;24301;54.332;48.386;2023-12-20T04:42:48;97540.38;;;1.66;91.38
38530;BME280;24301;54.332;48.386;2023-12-20T04:45:15;97553.28;;;1.68;91.03
38530;BME280;24301;54.332;48.386;2023-12-20T04:47:42;97553.28;;;1.68;91.38
38530;BME280;24301;54.332;48.386;2023-12-20T04:50:08;97539.50;;;1.66;91.05
38530;BME280;24301;54.332;48.386;2023-12-20T04:52:35;97546.41;;;1.64;90.87
38530;BME280;24301;54.332;48.386;2023-12-20T04:55:01;97542.09;;;1.67;91.13
38530;BME280;24301;54.332;48.386;2023-12-20T04:57:28;97544.66;;;1.69;90.88
38530;BME280;24301;54.332;48.386;2023-12-20T04:59:54;97548.97;;;1.75;90.96
38530;BME280;24301;54.332;48.386;2023-12-20T05:02:20;97548.09;;;1.76;91.24
38530;BME280;24301;54.332;48.386;2023-12-20T05:04:46;97548.13;;;1.72;90.89
38530;BME280;24301;54.332;48.386;2023-12-20T05:07:12;97555.88;;;1.76;91.20
38530;BME280;24301;54.332;48.386;2023-12-20T05:09:38;97529.97;;;1.79;91.12
38530;BME280;24301;54.332;48.386;2023-12-20T05:12:04;97541.19;;;1.82;90.53
38530;BME280;24301;54.332;48.386;2023-12-20T05:14:31;97547.25;;;1.78;90.94
38530;BME280;24301;54.332;48.386;2023-12-20T05:16:57;97529.97;;;1.79;90.79
38530;BME280;24301;54.332;48.386;2023-12-20T05:19:23;97537.75;;;1.77;91.01
38530;BME280;24301;54.332;48.386;2023-12-20T05:21:48;97548.09;;;1.80;91.11
38530;BME280;24301;54.332;48.386;2023-12-20T05:24:15;97540.31;;;1.82;91.79
38530;BME280;24301;54.332;48.386;2023-12-20T05:26:41;97557.56;;;1.89;92.07
38530;BME280;24301;54.332;48.386;2023-12-20T05:29:07;97571.41;;;1.94;91.35
38530;BME280;24301;54.332;48.386;2023-12-20T05:31:33;97560.16;;;1.97;91.55
38530;BME280;24301;54.332;48.386;2023-12-20T05:33:59;97561.00;;;2.00;91.79
38530;BME280;24301;54.332;48.386;2023-12-20T05:36:25;97538.53;;;2.03;91.27
38530;BME280;24301;54.332;48.386;2023-12-20T05:38:51;97555.81;;;2.04;91.05
38530;BME280;24301;54.332;48.386;2023-12-20T05:41:17;97563.56;;;2.10;91.31
38530;BME280;24301;54.332;48.386;2023-12-20T05:43:43;97564.44;;;2.18;91.66
38530;BME280;24301;54.332;48.386;2023-12-20T05:46:12;97584.28;;;2.25;91.24
38530;BME280;24301;54.332;48.386;2023-12-20T05:48:38;97578.22;;;2.26;90.76
38530;BME280;24301;54.332;48.386;2023-12-20T05:51:04;97588.63;;;2.23;90.70
38530;BME280;24301;54.332;48.386;2023-12-20T05:53:30;97590.31;;;2.27;91.08
38530;BME280;24301;54.332;48.386;2023-12-20T05:55:56;97586.81;;;2.38;91.23
38530;BME280;24301;54.332;48.386;2023-12-20T05:58:22;97586.84;;;2.41;90.61
38530;BME280;24301;54.332;48.386;2023-12-20T06:00:47;97595.44;;;2.49;90.56
38530;BME280;24301;54.332;48.386;2023-12-20T06:03:14;97586.78;;;2.53;90.71
38530;BME280;24301;54.332;48.386;2023-12-20T06:05:40;97596.25;;;2.57;89.76
38530;BME280;24301;54.332;48.386;2023-12-20T06:08:06;97578.97;;;2.56;90.00
38530;BME280;24301;54.332;48.386;2023-12-20T06:10:32;97589.34;;;2.58;88.93
38530;BME280;24301;54.332;48.386;2023-12-20T06:12:58;97594.53;;;2.61;89.38
38530;BME280;24301;54.332;48.386;2023-12-20T06:15:26;97596.25;;;2.57;88.75
38530;BME280;24301;54.332;48.386;2023-12-20T06:17:52;97593.66;;;2.59;88.14
38530;BME280;24301;54.332;48.386;2023-12-20T06:20:18;97611.81;;;2.61;88.23
38530;BME280;24301;54.332;48.386;2023-12-20T06:22:44;97603.16;;;2.62;88.40
38530;BME280;24301;54.332;48.386;2023-12-20T06:25:10;97598.81;;;2.64;88.11
38530;BME280;24301;54.332;48.386;2023-12-20T06:27:36;97597.97;;;2.68;88.27
38530;BME280;24301;54.332;48.386;2023-12-20T06:30:02;97602.25;;;2.72;87.94
38530;BME280;24301;54.332;48.386;2023-12-20T06:32:31;97602.25;;;2.72;87.69
38530;BME280;24301;54.332;48.386;2023-12-20T06:34:57;97620.41;;;2.73;87.15
38530;BME280;24301;54.332;48.386;2023-12-20T06:37:23;97614.34;;;2.76;87.33
38530;BME280;24301;54.332;48.386;2023-12-20T06:39:48;97622.97;;;2.81;87.04
38530;BME280;24301;54.332;48.386;2023-12-20T06:42:15;97629.03;;;2.82;86.71
38530;BME280;24301;54.332;48.386;2023-12-20T06:44:41;97626.41;;;2.83;86.81
38530;BME280;24301;54.332;48.386;2023-12-20T06:47:07;97624.72;;;2.76;86.02
38530;BME280;24301;54.332;48.386;2023-12-20T06:49:33;97616.06;;;2.80;86.24
38530;BME280;24301;54.332;48.386;2023-12-20T06:51:59;97621.25;;;2.80;86.39
38530;BME280;24301;54.332;48.386;2023-12-20T06:54:25;97630.75;;;2.84;85.97
38530;BME280;24301;54.332;48.386;2023-12-20T06:56:51;97628.16;;;2.81;85.77
38530;BME280;24301;54.332;48.386;2023-12-20T06:59:17;97641.16;;;2.83;86.01
38530;BME280;24301;54.332;48.386;2023-12-20T07:01:47;97648.88;;;2.94;85.97
38530;BME280;24301;54.332;48.386;2023-12-20T07:04:13;97640.22;;;2.88;85.50
38530;BME280;24301;54.332;48.386;2023-12-20T07:06:39;97655.81;;;2.92;85.67
38530;BME280;24301;54.332;48.386;2023-12-20T07:09:05;97646.28;;;2.94;85.71
38530;BME280;24301;54.332;48.386;2023-12-20T07:11:31;97656.63;;;3.00;85.39
38530;BME280;24301;54.332;48.386;2023-12-20T07:13:57;97648.00;;;2.98;85.28
38530;BME280;24301;54.332;48.386;2023-12-20T07:16:23;97659.22;;;2.98;85.00
38530;BME280;24301;54.332;48.386;2023-12-20T07:18:50;97634.13;;;2.97;84.52
38530;BME280;24301;54.332;48.386;2023-12-20T07:21:18;97660.13;;;2.94;84.90
38530;BME280;24301;54.332;48.386;2023-12-20T07:23:44;97661.00;;;2.95;84.98
38530;BME280;24301;54.332;48.386;2023-12-20T07:26:10;97660.97;;;2.98;84.75
38530;BME280;24301;54.332;48.386;2023-12-20T07:28:36;97669.63;;;2.95;84.65
38530;BME280;24301;54.332;48.386;2023-12-20T07:31:03;97655.81;;;2.92;85.10
38530;BME280;24301;54.332;48.386;2023-12-20T07:33:28;97658.41;;;2.95;84.64
38530;BME280;24301;54.332;48.386;2023-12-20T07:35:54;97648.84;;;2.98;84.55
38530;BME280;24301;54.332;48.386;2023-12-20T07:38:20;97665.28;;;3.00;84.46
38530;BME280;24301;54.332;48.386;2023-12-20T07:40:46;97665.28;;;2.97;84.23
38530;BME280;24301;54.332;48.386;2023-12-20T07:43:12;97650.56;;;3.01;84.90
38530;BME280;24301;54.332;48.386;2023-12-20T07:45:38;97641.03;;;3.01;84.60
38530;BME280;24301;54.332;48.386;2023-12-20T07:48:05;97627.19;;;3.06;84.57
38530;BME280;24301;54.332;48.386;2023-12-20T07:50:31;97628.03;;;3.06;84.58
38530;BME280;24301;54.332;48.386;2023-12-20T07:52:57;97620.25;;;3.08;84.73
38530;BME280;24301;54.332;48.386;2023-12-20T07:55:25;97613.34;;;3.07;84.42
38530;BME280;24301;54.332;48.386;2023-12-20T07:57:51;97613.34;;;3.04;84.39
38530;BME280;24301;54.332;48.386;2023-12-20T08:00:17;97602.97;;;3.02;84.29
38530;BME280;24301;54.332;48.386;2023-12-20T08:02:43;97609.03;;;3.01;84.42
38530;BME280;24301;54.332;48.386;2023-12-20T08:05:09;97625.47;;;3.00;84.32
38530;BME280;24301;54.332;48.386;2023-12-20T08:07:35;97632.38;;;2.99;84.06
38530;BME280;24301;54.332;48.386;2023-12-20T08:10:01;97635.00;;;2.98;84.84
38530;BME280;24301;54.332;48.386;2023-12-20T08:12:27;97640.16;;;3.04;84.41
38530;BME280;24301;54.332;48.386;2023-12-20T08:14:54;97647.97;;;3.04;84.43
38530;BME280;24301;54.332;48.386;2023-12-20T08:17:20;97654.91;;;3.04;84.83
38530;BME280;24301;54.332;48.386;2023-12-20T08:19:46;97666.06;;;3.13;84.62
38530;BME280;24301;54.332;48.386;2023-12-20T08:22:12;97662.59;;;3.16;84.71
38530;BME280;24301;54.332;48.386;2023-12-20T08:24:38;97669.56;;;3.11;84.12
38530;BME280;24301;54.332;48.386;2023-12-20T08:27:04;97684.25;;;3.13;84.47
38530;BME280;24301;54.332;48.386;2023-12-20T08:29:30;97679.06;;;3.10;84.19
38530;BME280;24301;54.332;48.386;2023-12-20T08:31:56;97667.03;;;3.00;84.17
38530;BME280;24301;54.332;48.386;2023-12-20T08:34:23;97668.78;;;2.93;84.59
38530;BME280;24301;54.332;48.386;2023-12-20T08:36:52;97648.94;;;2.83;84.32
38530;BME280;24301;54.332;48.386;2023-12-20T08:39:18;97654.97;;;2.83;84.78
38530;BME280;24301;54.332;48.386;2023-12-20T08:41:44;97655.00;;;2.76;85.21
38530;BME280;24301;54.332;48.386;2023-12-20T08:44:10;97640.28;;;2.79;85.49
38530;BME280;24301;54.332;48.386;2023-12-20T08:46:36;97632.50;;;2.81;85.36
38530;BME280;24301;54.332;48.386;2023-12-20T08:49:02;97624.75;;;2.73;85.52
38530;BME280;24301;54.332;48.386;2023-12-20T08:51:28;97639.44;;;2.79;85.67
38530;BME280;24301;54.332;48.386;2023-12-20T08:53:54;97648.88;;;2.94;86.44
38530;BME280;24301;54.332;48.386;2023-12-20T08:56:20;97660.94;;;3.02;86.40
38530;BME280;24301;54.332;48.386;2023-12-20T08:58:46;97640.13;;;3.10;85.83
38530;BME280;24301;54.332;48.386;2023-12-20T09:01:13;97621.94;;;3.12;85.38
38530;BME280;24301;54.332;48.386;2023-12-20T09:03:39;97640.09;;;3.15;85.11
38530;BME280;24301;54.332;48.386;2023-12-20T09:06:06;97636.66;;;3.11;84.78
38530;BME280;24301;54.332;48.386;2023-12-20T09:08:32;97646.16;;;3.12;84.74
38530;BME280;24301;54.332;48.386;2023-12-20T09:10:58;97650.50;;;3.16;84.93
38530;BME280;24301;54.332;48.386;2023-12-20T09:13:24;97640.09;;;3.20;84.86
38530;BME280;24301;54.332;48.386;2023-12-20T09:15:55;97633.16;;;3.20;84.61
38530;BME280;24301;54.332;48.386;2023-12-20T09:18:21;97640.94;;;3.20;84.23
38530;BME280;24301;54.332;48.386;2023-12-20T09:20:47;97649.59;;;3.19;84.06
38530;BME280;24301;54.332;48.386;2023-12-20T09:23:13;97639.19;;;3.22;84.43
38530;BME280;24301;54.332;48.386;2023-12-20T09:25:39;97643.50;;;3.23;84.22
38530;BME280;24301;54.332;48.386;2023-12-20T09:28:05;97646.97;;;3.22;83.95
38530;BME280;24301;54.332;48.386;2023-12-20T09:30:31;97658.22;;;3.26;83.88
38530;BME280;24301;54.332;48.386;2023-12-20T09:32:57;97660.81;;;3.26;83.90
38530;BME280;24301;54.332;48.386;2023-12-20T09:35:23;97655.59;;;3.29;83.79
38530;BME280;24301;54.332;48.386;2023-12-20T09:37:49;97659.13;;;3.22;83.49
38530;BME280;24301;54.332;48.386;2023-12-20T09:40:18;97664.31;;;3.22;83.60
38530;BME280;24301;54.332;48.386;2023-12-20T09:42:56;97662.63;;;3.18;83.40
38530;BME280;24301;54.332;48.386;2023-12-20T09:45:24;97666.94;;;3.17;83.61
38530;BME280;24301;54.332;48.386;2023-12-20T09:47:52;97660.88;;;3.20;83.81
38530;BME280;24301;54.332;48.386;2023-12-20T09:50:20;97653.97;;;3.14;83.28
38530;BME280;24301;54.332;48.386;2023-12-20T09:52:51;97665.19;;;3.14;83.98
38530;BME280;24301;54.332;48.386;2023-12-20T09:55:18;97668.69;;;3.12;83.85
38530;BME280;24301;54.332;48.386;2023-12-20T09:57:47;97666.94;;;3.17;84.12
38530;BME280;24301;54.332;48.386;2023-12-20T10:00:15;97647.03;;;3.18;83.72
38530;BME280;24301;54.332;48.386;2023-12-20T10:02:57;97654.78;;;3.19;83.93
38530;BME280;24301;54.332;48.386;2023-12-20T10:05:31;97655.69;;;3.20;83.55
38530;BME280;24301;54.332;48.386;2023-12-20T10:07:58;97660.88;;;3.16;83.87
38530;BME280;24301;54.332;48.386;2023-12-20T10:10:25;97666.94;;;3.19;83.66
38530;BME280;24301;54.332;48.386;2023-12-20T10:13:10;97665.19;;;3.19;83.67
38530;BME280;24301;54.332;48.386;2023-12-20T10:15:37;97666.06;;;3.13;83.52
38530;BME280;24301;54.332;48.386;2023-12-20T10:18:04;97667.84;;;3.10;83.58
38530;BME280;24301;54.332;48.386;2023-12-20T10:20:31;97674.78;;;3.06;84.07
38530;BME280;24301;54.332;48.386;2023-12-20T10:22:58;97677.34;;;3.11;84.51
38530;BME280;24301;54.332;48.386;2023-12-20T10:25:25;97673.88;;;3.12;84.71
38530;BME280;24301;54.332;48.386;2023-12-20T10:28:09;97681.66;;;3.13;84.60
38530;BME280;24301;54.332;48.386;2023-12-20T10:30:38;97676.47;;;3.12;84.49
38530;BME280;24301;54.332;48.386;2023-12-20T10:33:08;97693.78;;;3.18;84.63
38530;BME280;24301;54.332;48.386;2023-12-20T10:35:37;97690.28;;;3.15;84.88
38530;BME280;24301;54.332;48.386;2023-12-20T10:38:04;97676.47;;;3.13;84.89
38530;BME280;24301;54.332;48.386;2023-12-20T10:40:34;97683.41;;;3.08;84.59
38530;BME280;24301;54.332;48.386;2023-12-20T10:43:03;97673.06;;;3.02;84.61
38530;BME280;24301;54.332;48.386;2023-12-20T10:45:29;97682.59;;;2.98;85.14
38530;BME280;24301;54.332;48.386;2023-12-20T10:47:56;97688.63;;;3.00;85.91
38530;BME280;24301;54.332;48.386;2023-12-20T10:50:22;97688.63;;;3.00;85.53
38530;BME280;24301;54.332;48.386;2023-12-20T10:52:49;97676.56;;;2.95;85.60
38530;BME280;24301;54.332;48.386;2023-12-20T10:55:24;97680.03;;;2.97;85.78
38530;BME280;24301;54.332;48.386;2023-12-20T10:57:51;97690.44;;;2.94;85.72
38530;BME280;24301;54.332;48.386;2023-12-20T11:00:19;97699.06;;;2.96;86.01
38530;BME280;24301;54.332;48.386;2023-12-20T11:02:49;97700.78;;;2.98;85.84
38530;BME280;24301;54.332;48.386;2023-12-20T11:08:06;97705.06;;;3.07;86.39
38530;BME280;24301;54.332;48.386;2023-12-20T11:16:22;97722.41;;;3.07;85.88
38530;BME280;24301;54.332;48.386;2023-12-20T11:18:50;97711.13;;;3.06;85.83
38530;BME280;24301;54.332;48.386;2023-12-20T11:21:16;97723.28;;;3.01;86.00
38530;BME280;24301;54.332;48.386;2023-12-20T11:23:42;97712.00;;;3.00;85.97
38530;BME280;24301;54.332;48.386;2023-12-20T11:26:08;97737.09;;;3.03;86.11
38530;BME280;24301;54.332;48.386;2023-12-20T11:28:34;97728.44;;;3.07;86.27
38530;BME280;24301;54.332;48.386;2023-12-20T11:31:01;97724.06;;;3.12;86.33
38530;BME280;24301;54.332;48.386;2023-12-20T11:33:37;97720.63;;;3.15;86.02
38530;BME280;24301;54.332;48.386;2023-12-20T11:36:13;97718.00;;;3.13;85.87
38530;BME280;24301;54.332;48.386;2023-12-20T11:38:57;97724.09;;;3.09;85.96
38530;BME280;24301;54.332;48.386;2023-12-20T11:41:23;97720.63;;;3.10;85.43
38530;BME280;24301;54.332;48.386;2023-12-20T11:43:52;97735.34;;;3.11;85.59
38530;BME280;24301;54.332;48.386;2023-12-20T11:46:18;97740.53;;;3.08;85.60
38530;BME280;24301;54.332;48.386;2023-12-20T11:48:45;97751.81;;;3.09;85.68
38530;BME280;24301;54.332;48.386;2023-12-20T11:51:12;97760.47;;;3.03;85.38
38530;BME280;24301;54.332;48.386;2023-12-20T11:53:42;97760.47;;;3.03;85.65
38530;BME280;24301;54.332;48.386;2023-12-20T11:56:09;97751.81;;;3.02;86.15
38530;BME280;24301;54.332;48.386;2023-12-20T11:58:36;97758.75;;;3.04;86.32
38530;BME280;24301;54.332;48.386;2023-12-20T12:01:02;97740.56;;;3.02;86.25
38530;BME280;24301;54.332;48.386;2023-12-20T12:03:28;97752.72;;;2.97;86.43
38530;BME280;24301;54.332;48.386;2023-12-20T12:05:54;97759.63;;;2.98;86.14
38530;BME280;24301;54.332;48.386;2023-12-20T12:08:20;97761.38;;;2.99;86.64
38530;BME280;24301;54.332;48.386;2023-12-20T12:10:46;97768.28;;;2.97;86.45
38530;BME280;24301;54.332;48.386;2023-12-20T12:13:12;97763.09;;;2.92;86.47
38530;BME280;24301;54.332;48.386;2023-12-20T12:15:40;97765.72;;;2.86;86.26
38530;BME280;24301;54.332;48.386;2023-12-20T12:18:08;97769.16;;;2.86;86.56
38530;BME280;24301;54.332;48.386;2023-12-20T12:20:34;97765.72;;;2.86;86.75
38530;BME280;24301;54.332;48.386;2023-12-20T12:23:02;97761.41;;;2.88;87.10
38530;BME280;24301;54.332;48.386;2023-12-20T12:25:30;97770.06;;;2.92;86.90
38530;BME280;24301;54.332;48.386;2023-12-20T12:27:58;97763.13;;;2.91;86.96
38530;BME280;24301;54.332;48.386;2023-12-20T12:30:24;97764.81;;;2.96;87.22
38530;BME280;24301;54.332;48.386;2023-12-20T12:32:53;97763.97;;;2.94;86.60
38530;BME280;24301;54.332;48.386;2023-12-20T12:35:20;97750.16;;;2.91;86.46
38530;BME280;24301;54.332;48.386;2023-12-20T12:37:46;97767.44;;;2.88;86.55
38530;BME280;24301;54.332;48.386;2023-12-20T12:40:14;97763.13;;;2.81;86.76
38530;BME280;24301;54.332;48.386;2023-12-20T12:43:11;97748.44;;;2.80;87.15
38530;BME280;24301;54.332;48.386;2023-12-20T12:45:50;97760.56;;;2.80;87.08
38530;BME280;24301;54.332;48.386;2023-12-20T12:48:16;97759.66;;;2.78;86.88
38530;BME280;24301;54.332;48.386;2023-12-20T12:50:49;97760.53;;;2.81;87.22
38530;BME280;24301;54.332;48.386;2023-12-20T12:53:17;97753.63;;;2.80;87.37
38530;BME280;24301;54.332;48.386;2023-12-20T12:56:13;97775.22;;;2.88;86.96
38530;BME280;24301;54.332;48.386;2023-12-20T12:58:52;97764.00;;;2.85;86.92
38530;BME280;24301;54.332;48.386;2023-12-20T13:01:20;97781.28;;;2.84;86.95
38530;BME280;24301;54.332;48.386;2023-12-20T13:03:46;97787.34;;;2.83;87.17
38530;BME280;24301;54.332;48.386;2023-12-20T13:06:16;97776.13;;;2.81;87.31
38530;BME280;24301;54.332;48.386;2023-12-20T13:08:54;97757.09;;;2.79;87.01